Time;durP1;ratioP1;P1;durP2;ratioP2;P2;SDS_P1;SDS_P2;PMS_P1;PMS_P2;Temp;Humidity;BMP_temperature;BMP_pressure;BME280_temperature;BME280_humidity;BME280_pressure;Samples;Min_cycle;Max_cycle;Signal;HPM_P1;HPM_P2
2024/01/29 00:01:04;;;;;;;14.30;4.40;;;;;;;;;;4751806;30;20040;-80
2024/01/29 00:03:30;;;;;;;9.77;4.93;;;;;;;;;;4736656;30;20044;-81
2024/01/29 00:05:56;;;;;;;13.82;5.07;;;;;;;;;;4736827;30;20036;-80
2024/01/29 00:08:22;;;;;;;12.65;5.28;;;;;;;;;;4750978;30;20075;-80
2024/01/29 00:10:48;;;;;;;9.75;3.00;;;;;;;;;;4732413;30;20033;-80
2024/01/29 00:13:14;;;;;;;8.40;3.55;;;;;;;;;;4744668;30;20044;-80
2024/01/29 00:15:40;;;;;;;6.97;3.28;;;;;;;;;;4728293;30;20090;-80
2024/01/29 00:18:06;;;;;;;5.50;3.80;;;;;;;;;;4728628;30;20039;-80
2024/01/29 00:20:32;;;;;;;7.72;3.25;;;;;;;;;;4745784;30;20059;-80
2024/01/29 00:22:58;;;;;;;8.57;2.92;;;;;;;;;;4739580;30;20504;-80
2024/01/29 00:25:24;;;;;;;7.80;2.72;;;;;;;;;;4735338;30;20036;-80
2024/01/29 00:27:50;;;;;;;5.13;3.08;;;;;;;;;;4726179;30;20045;-80
2024/01/29 00:30:16;;;;;;;6.50;2.45;;;;;;;;;;4750016;30;20044;-80
2024/01/29 00:32:42;;;;;;;6.93;2.35;;;;;;;;;;4727342;30;20064;-82
2024/01/29 00:35:08;;;;;;;4.70;2.17;;;;;;;;;;4750100;30;20806;-82
2024/01/29 00:37:34;;;;;;;5.50;2.80;;;;;;;;;;4733163;30;20032;-80
2024/01/29 00:40:00;;;;;;;7.72;2.55;;;;;;;;;;4734604;30;20063;-80
2024/01/29 00:42:26;;;;;;;6.13;2.17;;;;;;;;;;4743445;30;20067;-80
2024/01/29 00:44:52;;;;;;;9.38;3.03;;;;;;;;;;4736896;30;20047;-80
2024/01/29 00:47:20;;;;;;;5.22;2.35;;;;;;;;;;4730116;30;20380;-80
2024/01/29 00:49:46;;;;;;;7.65;2.05;;;;;;;;;;4724422;30;20045;-82
2024/01/29 00:52:12;;;;;;;9.05;2.65;;;;;;;;;;4737951;30;20032;-82
2024/01/29 00:54:38;;;;;;;5.05;1.63;;;;;;;;;;4734415;30;20089;-80
2024/01/29 00:57:04;;;;;;;4.55;1.48;;;;;;;;;;4726201;30;20131;-80
2024/01/29 00:59:30;;;;;;;5.68;1.52;;;;;;;;;;4732621;30;20041;-80
2024/01/29 01:01:56;;;;;;;2.53;1.17;;;;;;;;;;4742332;30;20048;-80
2024/01/29 01:04:22;;;;;;;2.05;1.10;;;;;;;;;;4723381;30;20514;-80
2024/01/29 01:06:48;;;;;;;6.18;1.40;;;;;;;;;;4719618;30;20126;-80
2024/01/29 01:09:14;;;;;;;2.55;1.52;;;;;;;;;;4738240;30;20043;-81
2024/01/29 01:11:43;;;;;;;4.75;2.20;;;;;;;;;;4749916;30;20029;-80
2024/01/29 01:14:09;;;;;;;4.68;1.88;;;;;;;;;;4716972;30;20161;-80
2024/01/29 01:16:35;;;;;;;9.15;2.80;;;;;;;;;;4733928;30;22407;-80
2024/01/29 01:19:01;;;;;;;4.97;1.48;;;;;;;;;;4729863;30;20048;-80
2024/01/29 01:21:27;;;;;;;2.75;1.50;;;;;;;;;;4741304;30;20126;-80
2024/01/29 01:23:53;;;;;;;5.00;1.30;;;;;;;;;;4724347;30;20163;-80
2024/01/29 01:26:19;;;;;;;4.18;2.05;;;;;;;;;;4717537;30;20159;-80
2024/01/29 01:28:45;;;;;;;1.90;1.70;;;;;;;;;;4729709;30;20687;-80
2024/01/29 01:31:11;;;;;;;2.15;1.95;;;;;;;;;;4742194;30;20033;-80
2024/01/29 01:33:37;;;;;;;2.20;1.45;;;;;;;;;;4730670;30;20056;-80
2024/01/29 01:36:03;;;;;;;1.75;0.73;;;;;;;;;;4741431;30;20687;-80
2024/01/29 01:38:29;;;;;;;3.25;1.13;;;;;;;;;;4733848;30;20074;-80
2024/01/29 01:40:55;;;;;;;9.23;1.00;;;;;;;;;;4730515;30;20476;-80
2024/01/29 01:43:23;;;;;;;6.80;3.65;;;;;;;;;;4743443;30;20056;-80
2024/01/29 01:46:01;;;;;;;3.08;1.85;;;;;;;;;;4723533;30;20040;-80
2024/01/29 01:48:27;;;;;;;3.78;1.80;;;;;;;;;;4733272;30;20051;-80
2024/01/29 01:50:53;;;;;;;1.70;0.82;;;;;;;;;;4744873;30;20036;-80
2024/01/29 01:53:19;;;;;;;7.75;1.13;;;;;;;;;;4734230;30;20044;-80
2024/01/29 01:55:45;;;;;;;5.13;2.25;;;;;;;;;;4746880;30;20496;-80
2024/01/29 01:58:13;;;;;;;3.22;1.30;;;;;;;;;;4738986;30;20045;-80
2024/01/29 02:00:39;;;;;;;2.03;1.40;;;;;;;;;;4745091;30;20094;-80
2024/01/29 02:03:06;;;;;;;2.78;0.85;;;;;;;;;;4720746;30;20132;-80
2024/01/29 02:05:32;;;;;;;5.18;3.13;;;;;;;;;;4745835;30;20044;-80
2024/01/29 02:07:58;;;;;;;1.55;0.63;;;;;;;;;;4731965;30;20128;-80
2024/01/29 02:10:24;;;;;;;3.17;0.90;;;;;;;;;;4733289;30;20844;-81
2024/01/29 02:12:50;;;;;;;1.30;0.88;;;;;;;;;;4744473;30;20476;-80
2024/01/29 02:15:16;;;;;;;0.90;0.75;;;;;;;;;;4736916;30;20052;-80
2024/01/29 02:17:42;;;;;;;0.90;0.68;;;;;;;;;;4736298;30;20036;-80
2024/01/29 02:20:09;;;;;;;3.53;0.90;;;;;;;;;;4752728;30;20036;-81
2024/01/29 02:22:39;;;;;;;4.82;1.88;;;;;;;;;;4731203;30;20040;-81
2024/01/29 02:25:05;;;;;;;4.07;1.13;;;;;;;;;;4752657;30;20040;-80
2024/01/29 02:27:31;;;;;;;2.15;1.45;;;;;;;;;;4748439;30;20037;-80
2024/01/29 02:29:57;;;;;;;1.38;0.50;;;;;;;;;;4733348;30;20044;-80
2024/01/29 02:32:23;;;;;;;2.22;1.40;;;;;;;;;;4741320;30;20115;-80
2024/01/29 02:34:49;;;;;;;4.72;2.40;;;;;;;;;;4724438;30;20057;-80
2024/01/29 02:37:15;;;;;;;5.43;2.50;;;;;;;;;;4736150;30;20075;-80
2024/01/29 02:39:41;;;;;;;4.07;1.80;;;;;;;;;;4741037;30;20048;-80
2024/01/29 02:42:07;;;;;;;4.80;2.30;;;;;;;;;;4752604;30;20587;-80
2024/01/29 02:44:34;;;;;;;4.88;2.85;;;;;;;;;;4726180;30;20036;-80
2024/01/29 02:47:00;;;;;;;1.83;1.20;;;;;;;;;;4727749;30;20102;-80
2024/01/29 02:49:26;;;;;;;10.18;1.90;;;;;;;;;;4737524;30;20045;-80
2024/01/29 02:51:52;;;;;;;6.55;1.80;;;;;;;;;;4734635;30;20364;-80
2024/01/29 02:54:18;;;;;;;2.13;1.15;;;;;;;;;;4734144;30;20064;-80
2024/01/29 02:56:44;;;;;;;4.45;1.90;;;;;;;;;;4724529;30;20119;-80
2024/01/29 02:59:09;;;;;;;2.63;1.60;;;;;;;;;;4733970;30;20163;-80
2024/01/29 03:01:35;;;;;;;1.98;0.82;;;;;;;;;;4734514;30;20062;-80
2024/01/29 03:04:01;;;;;;;1.75;1.25;;;;;;;;;;4748135;30;20503;-80
2024/01/29 03:06:28;;;;;;;2.42;0.80;;;;;;;;;;4746038;30;20032;-80
2024/01/29 03:08:53;;;;;;;4.18;1.33;;;;;;;;;;4734829;30;20040;-80
2024/01/29 03:11:19;;;;;;;2.90;1.50;;;;;;;;;;4727238;30;20043;-80
2024/01/29 03:13:47;;;;;;;2.60;1.42;;;;;;;;;;4726155;30;20032;-80
2024/01/29 03:16:13;;;;;;;3.47;2.00;;;;;;;;;;4739668;30;20047;-80
2024/01/29 03:18:39;;;;;;;3.70;1.63;;;;;;;;;;4721750;30;20041;-80
2024/01/29 03:21:05;;;;;;;3.63;1.63;;;;;;;;;;4732712;30;20128;-80
2024/01/29 03:23:31;;;;;;;3.83;1.20;;;;;;;;;;4750430;30;20621;-80
2024/01/29 03:25:57;;;;;;;3.22;1.30;;;;;;;;;;4746696;30;20032;-80
2024/01/29 03:28:23;;;;;;;1.98;0.82;;;;;;;;;;4735661;30;20044;-80
2024/01/29 03:30:49;;;;;;;7.68;1.42;;;;;;;;;;4728335;30;20498;-80
2024/01/29 03:33:15;;;;;;;5.80;2.08;;;;;;;;;;4738968;30;20110;-80
2024/01/29 03:35:41;;;;;;;3.08;1.75;;;;;;;;;;4739805;30;20044;-80
2024/01/29 03:38:07;;;;;;;2.35;1.40;;;;;;;;;;4737682;30;20056;-80
2024/01/29 03:40:33;;;;;;;2.92;1.13;;;;;;;;;;4737712;30;20086;-80
2024/01/29 03:42:59;;;;;;;4.82;1.30;;;;;;;;;;4743635;30;20051;-80
2024/01/29 03:45:25;;;;;;;7.85;1.30;;;;;;;;;;4730508;30;20476;-80
2024/01/29 03:47:51;;;;;;;3.30;1.52;;;;;;;;;;4744366;30;20058;-80
2024/01/29 03:50:17;;;;;;;11.82;1.33;;;;;;;;;;4735331;30;20087;-80
2024/01/29 03:52:44;;;;;;;2.90;0.88;;;;;;;;;;4749428;30;20048;-80
2024/01/29 03:55:10;;;;;;;2.42;1.38;;;;;;;;;;4751586;30;20028;-80
2024/01/29 03:57:38;;;;;;;4.30;1.38;;;;;;;;;;4748871;30;20044;-80
2024/01/29 04:00:07;;;;;;;8.15;1.95;;;;;;;;;;4721695;30;20503;-80
2024/01/29 04:02:33;;;;;;;6.47;1.45;;;;;;;;;;4734181;30;20060;-80
2024/01/29 04:04:59;;;;;;;4.65;0.68;;;;;;;;;;4751492;30;20082;-80
2024/01/29 04:07:25;;;;;;;5.00;1.50;;;;;;;;;;4735147;30;20039;-80
2024/01/29 04:09:51;;;;;;;6.28;2.60;;;;;;;;;;4751420;30;20040;-80
2024/01/29 04:12:17;;;;;;;4.80;1.55;;;;;;;;;;4732736;30;20036;-80
2024/01/29 04:14:43;;;;;;;4.53;2.20;;;;;;;;;;4736847;30;20041;-80
2024/01/29 04:17:10;;;;;;;3.58;1.52;;;;;;;;;;4740967;30;20060;-80
2024/01/29 04:19:38;;;;;;;5.20;1.77;;;;;;;;;;4730570;30;20044;-80
2024/01/29 04:22:04;;;;;;;1.35;0.73;;;;;;;;;;4735608;30;20048;-80
2024/01/29 04:24:30;;;;;;;2.90;1.58;;;;;;;;;;4727974;30;20403;-80
2024/01/29 04:26:56;;;;;;;1.67;0.85;;;;;;;;;;4735592;30;20040;-80
2024/01/29 04:29:22;;;;;;;4.13;1.95;;;;;;;;;;4732966;30;20093;-80
2024/01/29 04:31:48;;;;;;;2.10;1.17;;;;;;;;;;4735334;30;20036;-80
2024/01/29 04:34:14;;;;;;;3.53;1.40;;;;;;;;;;4745160;30;20514;-80
2024/01/29 04:36:40;;;;;;;2.65;1.50;;;;;;;;;;4741738;30;20032;-80
2024/01/29 04:39:06;;;;;;;12.25;4.18;;;;;;;;;;4730830;30;20044;-80
2024/01/29 04:41:32;;;;;;;8.18;3.67;;;;;;;;;;4718186;30;20145;-80
2024/01/29 04:43:58;;;;;;;10.90;4.18;;;;;;;;;;4727565;30;20040;-80
2024/01/29 04:46:24;;;;;;;11.43;2.38;;;;;;;;;;4741575;30;20389;-80
2024/01/29 04:48:50;;;;;;;14.25;3.42;;;;;;;;;;4735653;30;20045;-80
2024/01/29 04:51:16;;;;;;;2.60;1.48;;;;;;;;;;4739778;30;20424;-80
2024/01/29 04:53:42;;;;;;;4.05;2.30;;;;;;;;;;4734629;30;20464;-80
2024/01/29 04:56:08;;;;;;;2.33;0.93;;;;;;;;;;4734716;30;20032;-80
2024/01/29 04:58:34;;;;;;;7.50;2.63;;;;;;;;;;4731459;30;20056;-80
2024/01/29 05:01:01;;;;;;;6.68;2.15;;;;;;;;;;4726508;30;20072;-80
2024/01/29 05:03:27;;;;;;;8.25;1.60;;;;;;;;;;4737747;30;20045;-80
2024/01/29 05:05:53;;;;;;;2.03;1.20;;;;;;;;;;4722931;30;20054;-80
2024/01/29 05:08:19;;;;;;;4.93;1.85;;;;;;;;;;4726503;30;20118;-80
2024/01/29 05:10:46;;;;;;;2.97;1.25;;;;;;;;;;4734792;30;20024;-80
2024/01/29 05:13:12;;;;;;;4.55;1.48;;;;;;;;;;4731914;30;20048;-80
2024/01/29 05:15:38;;;;;;;4.22;1.90;;;;;;;;;;4750336;30;20032;-80
2024/01/29 05:18:04;;;;;;;5.75;2.35;;;;;;;;;;4740689;30;20078;-80
2024/01/29 05:20:30;;;;;;;1.35;0.60;;;;;;;;;;4740972;30;20066;-80
2024/01/29 05:22:57;;;;;;;1.67;1.52;;;;;;;;;;4753262;30;20055;-80
2024/01/29 05:25:23;;;;;;;3.63;1.40;;;;;;;;;;4754026;30;20472;-80
2024/01/29 05:27:49;;;;;;;5.28;2.05;;;;;;;;;;4737049;30;20044;-80
2024/01/29 05:30:15;;;;;;;1.45;0.95;;;;;;;;;;4723410;30;20035;-80
2024/01/29 05:32:41;;;;;;;1.90;0.90;;;;;;;;;;4753191;30;20044;-80
2024/01/29 05:35:08;;;;;;;2.85;1.35;;;;;;;;;;4754395;30;20072;-80
2024/01/29 05:37:34;;;;;;;1.70;1.08;;;;;;;;;;4737670;30;20052;-80
2024/01/29 05:40:04;;;;;;;4.90;2.20;;;;;;;;;;4748757;30;20123;-80
2024/01/29 05:42:30;;;;;;;3.33;2.08;;;;;;;;;;4740947;30;20127;-80
2024/01/29 05:44:56;;;;;;;3.15;1.40;;;;;;;;;;4736839;30;20040;-80
2024/01/29 05:47:23;;;;;;;5.30;1.40;;;;;;;;;;4753596;30;20040;-81
2024/01/29 05:49:49;;;;;;;3.50;1.48;;;;;;;;;;4734000;30;20393;-80
2024/01/29 05:52:15;;;;;;;11.52;2.47;;;;;;;;;;4748466;30;20040;-80
2024/01/29 05:54:41;;;;;;;7.65;2.50;;;;;;;;;;4733985;30;20044;-80
2024/01/29 05:57:10;;;;;;;3.00;2.10;;;;;;;;;;4737026;30;20040;-79
2024/01/29 05:59:36;;;;;;;7.22;2.20;;;;;;;;;;4748443;30;20048;-80
2024/01/29 06:02:02;;;;;;;9.23;3.05;;;;;;;;;;4737657;30;20741;-79
2024/01/29 06:04:28;;;;;;;6.55;2.55;;;;;;;;;;4733341;30;20040;-79
2024/01/29 06:06:54;;;;;;;13.07;3.25;;;;;;;;;;4723451;30;20047;-80
2024/01/29 06:09:21;;;;;;;7.30;2.72;;;;;;;;;;4723240;30;20532;-80
2024/01/29 06:11:49;;;;;;;6.45;2.38;;;;;;;;;;4746500;30;20470;-80
2024/01/29 06:14:15;;;;;;;6.32;2.67;;;;;;;;;;4749162;30;20116;-81
2024/01/29 06:16:43;;;;;;;3.20;0.98;;;;;;;;;;4724955;30;20153;-81
2024/01/29 06:19:11;;;;;;;3.00;1.52;;;;;;;;;;4736606;30;20597;-79
2024/01/29 06:21:37;;;;;;;2.92;1.95;;;;;;;;;;4724825;30;20072;-80
2024/01/29 06:24:04;;;;;;;2.38;1.33;;;;;;;;;;4749169;30;20444;-80
2024/01/29 06:26:29;;;;;;;1.98;1.27;;;;;;;;;;4732289;30;20059;-81
2024/01/29 06:28:56;;;;;;;7.50;1.30;;;;;;;;;;4730733;30;20686;-81
2024/01/29 06:31:22;;;;;;;3.80;1.70;;;;;;;;;;4733678;30;20041;-82
2024/01/29 06:33:48;;;;;;;9.23;1.33;;;;;;;;;;4734300;30;20115;-78
2024/01/29 06:36:17;;;;;;;6.38;2.33;;;;;;;;;;4744092;30;20106;-78
2024/01/29 06:38:43;;;;;;;4.13;1.33;;;;;;;;;;4753163;30;20093;-78
2024/01/29 06:41:18;;;;;;;8.50;1.65;;;;;;;;;;4752396;30;20036;-78
2024/01/29 06:43:44;;;;;;;4.47;2.05;;;;;;;;;;4740721;30;20095;-79
2024/01/29 06:46:10;;;;;;;2.20;1.05;;;;;;;;;;4747987;30;20479;-78
2024/01/29 06:48:37;;;;;;;1.40;0.82;;;;;;;;;;4731255;30;20061;-79
2024/01/29 06:51:03;;;;;;;3.80;2.25;;;;;;;;;;4720477;30;20028;-79
2024/01/29 06:53:29;;;;;;;2.42;1.65;;;;;;;;;;4750164;30;20040;-79
2024/01/29 06:55:59;;;;;;;2.03;1.15;;;;;;;;;;4744072;30;20103;-78
2024/01/29 06:58:25;;;;;;;4.40;3.42;;;;;;;;;;4754445;30;20040;-79
2024/01/29 07:00:51;;;;;;;1.73;1.02;;;;;;;;;;4734840;30;20087;-79
2024/01/29 07:03:18;;;;;;;3.90;1.50;;;;;;;;;;4747204;30;20855;-79
2024/01/29 07:05:46;;;;;;;5.07;2.05;;;;;;;;;;4753383;30;20044;-79
2024/01/29 07:08:12;;;;;;;5.95;1.50;;;;;;;;;;4743130;30;20544;-79
2024/01/29 07:10:38;;;;;;;4.95;2.65;;;;;;;;;;4723220;30;20039;-79
2024/01/29 07:13:04;;;;;;;4.63;2.53;;;;;;;;;;4737208;30;20098;-79
2024/01/29 07:15:30;;;;;;;2.50;1.60;;;;;;;;;;4745836;30;20063;-79
2024/01/29 07:17:56;;;;;;;7.65;3.33;;;;;;;;;;4746149;30;20044;-79
2024/01/29 07:20:22;;;;;;;6.22;2.15;;;;;;;;;;4747563;30;20036;-79
2024/01/29 07:22:48;;;;;;;7.22;2.05;;;;;;;;;;4752981;30;20042;-79
2024/01/29 07:25:14;;;;;;;4.43;1.98;;;;;;;;;;4745617;30;20581;-79
2024/01/29 07:27:40;;;;;;;7.88;2.72;;;;;;;;;;4752800;30;20044;-79
2024/01/29 07:30:06;;;;;;;9.70;3.53;;;;;;;;;;4733659;30;20036;-79
2024/01/29 07:32:32;;;;;;;13.40;5.32;;;;;;;;;;4731483;30;20036;-79
2024/01/29 07:35:00;;;;;;;9.75;3.40;;;;;;;;;;4751357;30;20060;-79
2024/01/29 07:37:27;;;;;;;9.90;4.10;;;;;;;;;;4752684;30;20032;-79
2024/01/29 07:39:53;;;;;;;13.15;4.50;;;;;;;;;;4748509;30;20048;-79
2024/01/29 07:42:19;;;;;;;19.13;3.83;;;;;;;;;;4719339;30;20032;-79
2024/01/29 07:44:45;;;;;;;14.82;4.25;;;;;;;;;;4749260;30;20577;-78
2024/01/29 07:47:12;;;;;;;8.30;2.78;;;;;;;;;;4733657;30;20440;-79
2024/01/29 07:49:38;;;;;;;7.07;3.88;;;;;;;;;;4746724;30;20047;-79
2024/01/29 07:52:04;;;;;;;5.13;2.58;;;;;;;;;;4745713;30;20047;-78
2024/01/29 07:54:30;;;;;;;15.80;3.90;;;;;;;;;;4751900;30;20111;-79
2024/01/29 07:56:56;;;;;;;6.57;3.17;;;;;;;;;;4750847;30;20081;-79
2024/01/29 07:59:22;;;;;;;6.22;2.70;;;;;;;;;;4752104;30;20044;-79
2024/01/29 08:01:48;;;;;;;9.15;3.17;;;;;;;;;;4752146;30;20040;-78
2024/01/29 08:04:14;;;;;;;8.20;3.42;;;;;;;;;;4752174;30;20082;-79
2024/01/29 08:06:40;;;;;;;9.32;3.72;;;;;;;;;;4752047;30;20040;-79
2024/01/29 08:09:06;;;;;;;8.25;2.83;;;;;;;;;;4742658;30;20528;-79
2024/01/29 08:11:32;;;;;;;3.83;1.92;;;;;;;;;;4745593;30;20024;-79
2024/01/29 08:13:58;;;;;;;14.85;5.55;;;;;;;;;;4744205;30;20039;-79
2024/01/29 08:16:24;;;;;;;14.15;6.07;;;;;;;;;;4749580;30;20032;-79
2024/01/29 08:18:51;;;;;;;11.48;5.78;;;;;;;;;;4731674;30;20387;-79
2024/01/29 08:21:17;;;;;;;6.32;3.75;;;;;;;;;;4744715;30;20406;-79
2024/01/29 08:23:43;;;;;;;10.77;5.20;;;;;;;;;;4736301;30;20459;-78
2024/01/29 08:26:09;;;;;;;13.75;3.47;;;;;;;;;;4745837;30;20028;-79
2024/01/29 08:28:35;;;;;;;9.50;3.30;;;;;;;;;;4752199;30;20052;-78
2024/01/29 08:31:01;;;;;;;11.02;3.92;;;;;;;;;;4751575;30;20035;-79
2024/01/29 08:33:30;;;;;;;5.95;3.58;;;;;;;;;;4751906;30;20059;-79
2024/01/29 08:35:56;;;;;;;7.15;3.70;;;;;;;;;;4751744;30;20032;-79
2024/01/29 08:38:23;;;;;;;7.00;3.42;;;;;;;;;;4751675;30;20079;-79
2024/01/29 08:40:49;;;;;;;10.98;3.92;;;;;;;;;;4740749;30;20043;-79
2024/01/29 08:43:15;;;;;;;9.50;4.40;;;;;;;;;;4736087;30;20073;-79
2024/01/29 08:45:42;;;;;;;7.95;2.25;;;;;;;;;;4748795;30;20146;-78
2024/01/29 08:48:08;;;;;;;8.65;3.92;;;;;;;;;;4735726;30;20049;-79
2024/01/29 08:50:34;;;;;;;8.55;3.55;;;;;;;;;;4748335;30;20036;-78
2024/01/29 08:53:00;;;;;;;5.80;2.60;;;;;;;;;;4720136;30;20041;-79
2024/01/29 08:55:26;;;;;;;6.72;3.10;;;;;;;;;;4733270;30;20033;-79
2024/01/29 08:57:52;;;;;;;11.80;2.88;;;;;;;;;;4733962;30;20040;-79
2024/01/29 09:00:18;;;;;;;4.20;2.78;;;;;;;;;;4718129;30;20044;-79
2024/01/29 09:02:45;;;;;;;7.25;2.60;;;;;;;;;;4733698;30;20072;-79
2024/01/29 09:05:11;;;;;;;5.47;2.53;;;;;;;;;;4739281;30;20598;-79
2024/01/29 09:07:37;;;;;;;5.93;2.88;;;;;;;;;;4739817;30;20050;-79
2024/01/29 09:10:03;;;;;;;14.43;3.28;;;;;;;;;;4750943;30;20040;-79
2024/01/29 09:12:29;;;;;;;3.97;1.70;;;;;;;;;;4749394;30;20064;-80
2024/01/29 09:14:55;;;;;;;4.35;1.83;;;;;;;;;;4738834;30;20040;-79
2024/01/29 09:17:21;;;;;;;3.40;2.15;;;;;;;;;;4746880;30;20040;-79
2024/01/29 09:19:51;;;;;;;5.47;2.05;;;;;;;;;;4737982;30;20067;-80
2024/01/29 09:22:17;;;;;;;6.07;2.15;;;;;;;;;;4735621;30;20048;-79
2024/01/29 09:24:43;;;;;;;5.00;2.58;;;;;;;;;;4750048;30;20040;-79
2024/01/29 09:27:10;;;;;;;6.28;2.42;;;;;;;;;;4745761;30;20796;-79
2024/01/29 09:29:36;;;;;;;6.38;2.17;;;;;;;;;;4727983;30;20376;-79
2024/01/29 09:32:02;;;;;;;9.35;2.45;;;;;;;;;;4736047;30;20037;-80
2024/01/29 09:34:28;;;;;;;3.70;1.58;;;;;;;;;;4741322;30;20129;-82
2024/01/29 09:36:54;;;;;;;4.22;2.45;;;;;;;;;;4723442;30;20040;-83
2024/01/29 09:39:24;;;;;;;4.05;1.63;;;;;;;;;;4728774;30;20037;-83
2024/01/29 09:41:52;;;;;;;7.30;1.80;;;;;;;;;;4745947;30;20801;-83
2024/01/29 09:44:18;;;;;;;6.45;3.25;;;;;;;;;;4745744;30;20082;-82
2024/01/29 09:46:45;;;;;;;4.97;2.55;;;;;;;;;;4746915;30;20055;-81
2024/01/29 09:49:11;;;;;;;7.63;2.83;;;;;;;;;;4750067;30;20036;-82
2024/01/29 09:51:38;;;;;;;3.97;2.35;;;;;;;;;;4748477;30;20048;-82
2024/01/29 09:54:05;;;;;;;7.57;2.83;;;;;;;;;;4735561;30;20038;-82
2024/01/29 09:56:31;;;;;;;3.70;2.13;;;;;;;;;;4739603;30;20449;-81
2024/01/29 09:58:57;;;;;;;4.45;1.88;;;;;;;;;;4727745;30;20491;-82
2024/01/29 10:01:23;;;;;;;5.80;1.48;;;;;;;;;;4734485;30;20475;-82
2024/01/29 10:03:50;;;;;;;3.85;2.53;;;;;;;;;;4750768;30;20502;-79
2024/01/29 10:06:16;;;;;;;11.20;2.95;;;;;;;;;;4750770;30;20471;-82
2024/01/29 10:08:42;;;;;;;5.40;1.90;;;;;;;;;;4743882;30;20052;-82
2024/01/29 10:11:08;;;;;;;10.40;2.42;;;;;;;;;;4747832;30;20585;-81
2024/01/29 10:13:35;;;;;;;9.35;2.45;;;;;;;;;;4753243;30;20044;-82
2024/01/29 10:16:01;;;;;;;3.13;1.85;;;;;;;;;;4737897;30;20036;-82
2024/01/29 10:18:27;;;;;;;5.03;2.35;;;;;;;;;;4737606;30;20048;-82
2024/01/29 10:21:06;;;;;;;5.15;3.72;;;;;;;;;;4753069;30;20067;-82
2024/01/29 10:23:32;;;;;;;4.63;2.45;;;;;;;;;;4747038;30;20094;-82
2024/01/29 10:26:00;;;;;;;6.53;2.08;;;;;;;;;;4747301;30;20040;-82
2024/01/29 10:28:26;;;;;;;4.57;2.28;;;;;;;;;;4734421;30;20043;-82
2024/01/29 10:30:56;;;;;;;4.47;2.65;;;;;;;;;;4738701;30;20056;-81
2024/01/29 10:33:22;;;;;;;6.32;3.15;;;;;;;;;;4744141;30;20053;-81
2024/01/29 10:35:51;;;;;;;6.07;1.90;;;;;;;;;;4748201;30;20041;-81
2024/01/29 10:38:19;;;;;;;2.90;1.75;;;;;;;;;;4752717;30;20036;-82
2024/01/29 10:40:45;;;;;;;6.80;3.15;;;;;;;;;;4752709;30;20036;-81
2024/01/29 10:43:20;;;;;;;4.28;2.60;;;;;;;;;;4745777;30;20043;-82
2024/01/29 10:45:48;;;;;;;4.45;2.15;;;;;;;;;;4746849;30;20500;-82
2024/01/29 10:48:14;;;;;;;3.97;1.50;;;;;;;;;;4749535;30;20048;-81
2024/01/29 10:50:41;;;;;;;4.28;1.73;;;;;;;;;;4735218;30;20043;-81
2024/01/29 10:53:08;;;;;;;2.47;1.42;;;;;;;;;;4742007;30;20495;-81
2024/01/29 10:55:34;;;;;;;3.08;1.67;;;;;;;;;;4741614;30;20052;-82
2024/01/29 10:58:01;;;;;;;4.75;2.72;;;;;;;;;;4737858;30;20393;-81
2024/01/29 11:00:28;;;;;;;3.03;1.63;;;;;;;;;;4732577;30;20125;-81
2024/01/29 11:02:56;;;;;;;1.75;0.60;;;;;;;;;;4743220;30;20033;-81
2024/01/29 11:05:22;;;;;;;2.03;0.65;;;;;;;;;;4721451;30;20048;-81
2024/01/29 11:07:49;;;;;;;1.30;0.82;;;;;;;;;;4740014;30;20040;-82
2024/01/29 11:10:23;;;;;;;1.15;0.63;;;;;;;;;;4739650;30;20036;-82
2024/01/29 11:12:51;;;;;;;3.38;0.80;;;;;;;;;;4749675;30;20498;-81
2024/01/29 11:15:17;;;;;;;1.25;0.77;;;;;;;;;;4742737;30;20067;-81
2024/01/29 11:17:43;;;;;;;0.77;0.32;;;;;;;;;;4750604;30;20040;-78
2024/01/29 11:20:13;;;;;;;0.43;0.28;;;;;;;;;;4735896;30;20412;-78
2024/01/29 11:22:39;;;;;;;1.73;1.02;;;;;;;;;;4747784;30;20302;-82
2024/01/29 11:25:08;;;;;;;1.35;0.70;;;;;;;;;;4748235;30;20107;-82
2024/01/29 11:27:34;;;;;;;2.72;0.57;;;;;;;;;;4736991;30;20044;-80
2024/01/29 11:30:09;;;;;;;1.85;0.68;;;;;;;;;;4735605;30;20078;-78
2024/01/29 11:32:38;;;;;;;2.70;1.17;;;;;;;;;;4736339;30;20035;-79
2024/01/29 11:35:10;;;;;;;0.98;0.73;;;;;;;;;;4737202;30;20075;-79
2024/01/29 11:37:36;;;;;;;2.95;1.02;;;;;;;;;;4736653;30;20503;-80
2024/01/29 11:40:03;;;;;;;2.20;1.08;;;;;;;;;;4738401;30;20044;-80
2024/01/29 11:42:29;;;;;;;0.82;0.50;;;;;;;;;;4742900;30;20033;-80
2024/01/29 11:44:55;;;;;;;3.08;0.68;;;;;;;;;;4743014;30;20047;-80
2024/01/29 11:47:22;;;;;;;2.75;0.60;;;;;;;;;;4744140;30;20073;-80
2024/01/29 11:49:48;;;;;;;1.02;0.57;;;;;;;;;;4753482;30;20465;-80
2024/01/29 11:52:16;;;;;;;2.70;0.57;;;;;;;;;;4750695;30;20539;-78
2024/01/29 11:54:42;;;;;;;8.57;0.45;;;;;;;;;;4752221;30;20411;-78
2024/01/29 11:57:08;;;;;;;2.78;0.77;;;;;;;;;;4746902;30;20032;-77
2024/01/29 11:59:45;;;;;;;1.00;0.32;;;;;;;;;;4718897;30;20041;-77
2024/01/29 12:02:11;;;;;;;1.13;0.57;;;;;;;;;;4735022;30;20519;-80
2024/01/29 12:04:37;;;;;;;1.50;0.60;;;;;;;;;;4740844;30;20119;-78
2024/01/29 12:07:03;;;;;;;0.57;0.32;;;;;;;;;;4742683;30;20111;-81
2024/01/29 12:09:30;;;;;;;0.57;0.28;;;;;;;;;;4734308;30;20111;-79
2024/01/29 12:11:56;;;;;;;0.22;0.20;;;;;;;;;;4744162;30;20045;-81
2024/01/29 12:14:25;;;;;;;2.83;0.80;;;;;;;;;;4761016;24;20040;-81
2024/01/29 12:16:51;;;;;;;4.40;0.45;;;;;;;;;;4754278;30;20043;-79
2024/01/29 12:19:17;;;;;;;1.98;0.73;;;;;;;;;;4769948;30;20078;-79
2024/01/29 12:21:43;;;;;;;0.13;0.13;;;;;;;;;;4761289;30;20027;-80
2024/01/29 12:24:09;;;;;;;2.03;0.52;;;;;;;;;;4749725;30;20123;-79
2024/01/29 12:26:38;;;;;;;5.57;0.80;;;;;;;;;;4752138;30;20039;-79
2024/01/29 12:29:04;;;;;;;0.93;0.40;;;;;;;;;;4754889;30;20044;-79
2024/01/29 12:31:30;;;;;;;1.10;0.50;;;;;;;;;;4757849;30;20034;-79
2024/01/29 12:33:56;;;;;;;2.20;0.95;;;;;;;;;;4756371;30;20039;-82
2024/01/29 12:36:22;;;;;;;1.85;0.57;;;;;;;;;;4743480;30;20024;-80
2024/01/29 12:38:53;;;;;;;0.47;0.20;;;;;;;;;;4763459;30;20048;-81
2024/01/29 12:41:20;;;;;;;0.40;0.30;;;;;;;;;;4752818;30;20040;-82
2024/01/29 12:43:46;;;;;;;0.30;0.20;;;;;;;;;;4754961;30;20139;-82
2024/01/29 12:46:13;;;;;;;0.73;0.30;;;;;;;;;;4750636;30;20158;-79
2024/01/29 12:48:39;;;;;;;0.77;0.25;;;;;;;;;;4763988;30;20048;-79
2024/01/29 12:51:05;;;;;;;1.30;0.52;;;;;;;;;;4752024;30;20081;-79
2024/01/29 12:53:31;;;;;;;1.30;0.43;;;;;;;;;;4767951;30;20036;-79
2024/01/29 12:55:57;;;;;;;0.82;0.35;;;;;;;;;;4763339;30;20039;-79
2024/01/29 12:58:24;;;;;;;0.65;0.43;;;;;;;;;;4763926;30;20039;-80
2024/01/29 13:00:51;;;;;;;0.77;0.38;;;;;;;;;;4763643;30;20036;-79
2024/01/29 13:03:17;;;;;;;0.55;0.30;;;;;;;;;;4752391;30;20036;-79
2024/01/29 13:05:43;;;;;;;12.80;0.50;;;;;;;;;;4756789;30;20047;-80
2024/01/29 13:08:09;;;;;;;1.08;0.57;;;;;;;;;;4761117;30;20040;-80
2024/01/29 13:10:37;;;;;;;0.30;0.20;;;;;;;;;;4753444;30;20541;-79
2024/01/29 13:13:04;;;;;;;0.63;0.32;;;;;;;;;;4762812;30;20327;-79
2024/01/29 13:15:31;;;;;;;0.80;0.57;;;;;;;;;;4752726;30;20486;-79
2024/01/29 13:17:57;;;;;;;1.13;0.50;;;;;;;;;;4756706;30;20032;-79
2024/01/29 13:20:23;;;;;;;0.60;0.30;;;;;;;;;;4764523;30;20481;-79
2024/01/29 13:22:49;;;;;;;2.00;0.88;;;;;;;;;;4762363;30;20054;-79
2024/01/29 13:25:15;;;;;;;0.90;0.57;;;;;;;;;;4757780;30;20046;-79
2024/01/29 13:27:41;;;;;;;1.45;0.40;;;;;;;;;;4763381;30;20044;-79
2024/01/29 13:30:07;;;;;;;3.90;0.70;;;;;;;;;;4766968;30;20043;-79
2024/01/29 13:32:33;;;;;;;1.00;0.57;;;;;;;;;;4756632;30;20036;-79
2024/01/29 13:35:00;;;;;;;4.50;0.60;;;;;;;;;;4766436;30;20036;-79
2024/01/29 13:37:25;;;;;;;2.28;0.63;;;;;;;;;;4753674;30;20032;-79
2024/01/29 13:39:51;;;;;;;1.05;0.47;;;;;;;;;;4758507;30;20151;-79
2024/01/29 13:42:18;;;;;;;4.85;0.73;;;;;;;;;;4753966;30;20470;-79
2024/01/29 13:44:44;;;;;;;1.02;0.45;;;;;;;;;;4749347;30;20388;-79
2024/01/29 13:47:10;;;;;;;1.92;0.80;;;;;;;;;;4763265;30;20502;-79
2024/01/29 13:49:36;;;;;;;0.85;0.52;;;;;;;;;;4769824;30;20050;-80
2024/01/29 13:52:03;;;;;;;1.63;0.57;;;;;;;;;;4749108;30;20043;-79
2024/01/29 13:54:29;;;;;;;2.15;0.60;;;;;;;;;;4769606;30;20126;-79
2024/01/29 13:56:55;;;;;;;1.70;0.85;;;;;;;;;;4758401;30;20081;-79
2024/01/29 13:59:21;;;;;;;1.58;0.90;;;;;;;;;;4769864;30;20135;-79
2024/01/29 14:01:47;;;;;;;1.95;0.77;;;;;;;;;;4760709;30;20433;-80
2024/01/29 14:04:13;;;;;;;3.20;0.85;;;;;;;;;;4749355;30;20036;-80
2024/01/29 14:06:39;;;;;;;2.05;0.65;;;;;;;;;;4761976;30;20097;-79
2024/01/29 14:09:05;;;;;;;1.17;0.38;;;;;;;;;;4751277;30;20044;-80
2024/01/29 14:11:31;;;;;;;2.60;0.80;;;;;;;;;;4764108;30;20070;-80
2024/01/29 14:13:57;;;;;;;1.20;0.45;;;;;;;;;;4769612;30;20075;-80
2024/01/29 14:16:23;;;;;;;0.80;0.30;;;;;;;;;;4754626;30;20391;-80
2024/01/29 14:18:49;;;;;;;2.63;0.52;;;;;;;;;;4770119;30;20119;-80
2024/01/29 14:21:18;;;;;;;1.48;0.52;;;;;;;;;;4757609;30;20047;-80
2024/01/29 14:23:44;;;;;;;1.23;0.60;;;;;;;;;;4758549;30;20055;-80
2024/01/29 14:26:10;;;;;;;0.55;0.45;;;;;;;;;;4762483;30;20048;-80
2024/01/29 14:28:36;;;;;;;2.15;0.65;;;;;;;;;;4763022;30;20119;-80
2024/01/29 14:31:04;;;;;;;1.55;0.50;;;;;;;;;;4754277;30;20403;-80
2024/01/29 14:33:30;;;;;;;2.78;1.13;;;;;;;;;;4758748;30;20059;-81
2024/01/29 14:35:56;;;;;;;0.20;0.20;;;;;;;;;;4765221;30;20078;-81
2024/01/29 14:38:25;;;;;;;1.33;0.60;;;;;;;;;;4764277;30;20035;-81